world map with TSJ marked

TSJ - Airport

This information may not be accurate or current and is not valid for navigation or flight planning. No warranty of fitness for any purpose is made or implied.

flag of Nagasakiflag of Japan

Donate via PayPal

Additional information is available on the NEW Great Circle Mapper

Location
City:  Tsushima, Tsushima Island, Nagasaki, Japan
Name:Tsushima Airport
ICAO / IATA:RJDT / TSJ

Details
Type:Airport (Aerodrome, Airfield)
Latitude:34°17'06"N (34.284889)
Longitude:129°19'50"E (129.330550)
Datum:WGS 1984
Elevation:213 ft (65 m)
Runways:1
Longest:6234 × 150 ft (1900 × 45.5 m)

Time
Timezone:UTC+9 (DST+11)
Local Time:

Weather
METAR:RJDT  172230Z 35008KT 320V020 9999 FEW025 SCT030 BKN110 13/07 Q1014

Related Locations
Nearby:
Farthest:SUEO: 12309 mi / 19809 km
Montevideo [Montevideo UIR], UY

Find:

   beyond  
but within

Other Information
Maps:
Sources:

  


 


Great Circle Mapper   Great Circle Mapper
Great Circle Mapper FAQ   Great Circle Mapper FAQ
  Karl's Home Page
KLSē   KLSē Home
   GC on Facebook
Airlines of the World   Airlines of the World
Donate via PayPal


Copyright © 2004-2017, Karl L. Swartz. All rights reserved.
All trademarks mentioned herein belong to their respective owners.

Please see credits for attribution and copyright information.

Karl Swartz <karl@kls2.com>
  Powered by FreeBSD
Valid HTML 4.01!
Labeled with ICRA
hCard Microformat
Geo Microformat